createdAt,value
2018-06-17T00:00:14.768Z,29.70
2018-06-17T00:02:42.085Z,29.70
2018-06-17T00:05:09.410Z,36.55
2018-06-17T00:07:37.065Z,33.75
2018-06-17T00:10:04.976Z,34.80
2018-06-17T00:12:32.286Z,33.28
2018-06-17T00:14:59.608Z,40.48
2018-06-17T00:17:27.451Z,33.85
2018-06-17T00:19:54.851Z,36.15
2018-06-17T00:22:22.187Z,34.90
2018-06-17T00:24:49.459Z,36.85
2018-06-17T00:27:16.802Z,36.55
2018-06-17T00:29:44.116Z,35.95
2018-06-17T00:32:11.432Z,34.98
2018-06-17T00:34:39.059Z,39.08
2018-06-17T00:37:06.342Z,39.30
2018-06-17T00:39:33.669Z,41.80
2018-06-17T00:42:01.187Z,42.40
2018-06-17T00:44:28.485Z,36.45
2018-06-17T00:46:55.771Z,36.00
2018-06-17T00:49:23.061Z,35.90
2018-06-17T00:51:50.377Z,42.40
2018-06-17T00:54:17.713Z,39.27
2018-06-17T00:56:49.485Z,39.27
2018-06-17T00:59:16.814Z,39.98
2018-06-17T01:01:44.132Z,38.35
2018-06-17T01:04:11.438Z,40.52
2018-06-17T01:06:38.710Z,38.02
2018-06-17T01:09:06.394Z,40.98
2018-06-17T01:11:33.663Z,43.95
2018-06-17T01:14:01.000Z,40.52
2018-06-17T01:16:28.266Z,40.70
2018-06-17T01:18:55.599Z,38.60
2018-06-17T01:21:22.927Z,38.05
2018-06-17T01:23:50.316Z,42.58
2018-06-17T01:26:17.603Z,39.58
2018-06-17T01:28:44.979Z,37.00
2018-06-17T01:31:12.230Z,39.00
2018-06-17T01:33:39.547Z,40.50
2018-06-17T01:36:06.831Z,36.08
2018-06-17T01:38:34.123Z,39.00
2018-06-17T01:41:01.445Z,35.85
2018-06-17T01:43:29.188Z,36.03
2018-06-17T01:45:56.502Z,35.65
2018-06-17T01:48:23.774Z,36.60
2018-06-17T01:50:51.113Z,36.13
2018-06-17T01:53:18.412Z,35.78
2018-06-17T01:55:46.103Z,37.35
2018-06-17T01:58:13.419Z,38.15
2018-06-17T02:00:40.812Z,34.50
2018-06-17T02:03:13.532Z,33.60
2018-06-17T02:05:46.306Z,33.02
2018-06-17T02:08:19.008Z,34.80
2018-06-17T02:10:51.774Z,41.55
2018-06-17T02:13:19.059Z,36.05
2018-06-17T02:15:46.588Z,34.08
2018-06-17T02:18:13.878Z,36.55
2018-06-17T02:20:41.155Z,34.48
2018-06-17T02:23:08.429Z,34.27
2018-06-17T02:25:35.742Z,35.68
2018-06-17T02:28:03.022Z,31.00
2018-06-17T02:30:30.326Z,32.95
2018-06-17T02:32:57.674Z,31.87
2018-06-17T02:35:25.000Z,34.53
2018-06-17T02:37:52.326Z,35.65
2018-06-17T02:40:19.613Z,29.42
2018-06-17T02:42:46.867Z,32.63
2018-06-17T02:46:19.243Z,34.05
2018-06-17T02:48:52.131Z,30.50
2018-06-17T02:51:24.777Z,31.95
2018-06-17T02:53:57.534Z,30.02
2018-06-17T02:56:24.818Z,30.30
2018-06-17T02:58:52.094Z,31.40
2018-06-17T03:01:19.354Z,34.90
2018-06-17T03:03:46.671Z,38.00
2018-06-17T03:06:13.899Z,29.75
2018-06-17T03:08:41.214Z,32.48
2018-06-17T03:11:08.463Z,29.25
2018-06-17T03:13:35.746Z,27.98
2018-06-17T03:16:03.144Z,26.62
2018-06-17T03:18:30.447Z,26.97
2018-06-17T03:20:57.737Z,29.32
2018-06-17T03:23:25.019Z,25.90
2018-06-17T03:25:57.854Z,24.18
2018-06-17T03:28:30.444Z,26.10
2018-06-17T03:31:03.230Z,22.73
2018-06-17T03:33:35.925Z,22.85
2018-06-17T03:36:09.963Z,28.85
2018-06-17T03:38:37.612Z,25.23
2018-06-17T03:41:04.963Z,24.37
2018-06-17T03:43:32.220Z,24.50
2018-06-17T03:45:59.517Z,23.60
2018-06-17T03:48:26.837Z,24.65
2018-06-17T03:50:54.305Z,28.10
2018-06-17T03:53:21.602Z,21.90
2018-06-17T03:55:48.892Z,24.72
2018-06-17T03:58:16.215Z,24.37
2018-06-17T04:00:43.488Z,23.38
2018-06-17T04:03:10.783Z,23.95
2018-06-17T04:05:38.076Z,26.85
2018-06-17T04:08:05.341Z,24.52
2018-06-17T04:10:32.676Z,24.32
2018-06-17T04:12:59.963Z,22.20
2018-06-17T04:15:27.270Z,25.02
2018-06-17T04:17:54.533Z,24.47
2018-06-17T04:20:21.822Z,23.45
2018-06-17T04:22:49.124Z,28.62
2018-06-17T04:25:16.434Z,27.25
2018-06-17T04:27:43.710Z,26.00
2018-06-17T04:30:11.146Z,24.63
2018-06-17T04:32:38.451Z,24.25
2018-06-17T04:35:05.712Z,26.35
2018-06-17T04:37:33.059Z,24.98
2018-06-17T04:40:00.353Z,26.87
2018-06-17T04:42:27.617Z,25.32
2018-06-17T04:44:55.046Z,26.35
2018-06-17T04:47:22.302Z,22.82
2018-06-17T04:49:49.552Z,25.20
2018-06-17T04:52:16.846Z,25.37
2018-06-17T04:54:44.224Z,21.10
2018-06-17T04:57:11.594Z,21.15
2018-06-17T04:59:38.866Z,20.20
2018-06-17T05:02:06.356Z,20.08
2018-06-17T05:04:33.621Z,22.27
2018-06-17T05:07:01.407Z,20.50
2018-06-17T05:09:28.708Z,18.37
2018-06-17T05:11:56.019Z,22.02
2018-06-17T05:14:23.278Z,19.25
2018-06-17T05:16:50.571Z,17.75
2018-06-17T05:19:17.871Z,17.40
2018-06-17T05:21:45.132Z,19.98
2018-06-17T05:24:12.496Z,16.80
2018-06-17T05:26:39.793Z,20.95
2018-06-17T05:29:07.111Z,18.75
2018-06-17T05:31:34.423Z,15.60
2018-06-17T05:34:02.244Z,16.80
2018-06-17T05:36:29.527Z,17.25
2018-06-17T05:38:56.848Z,16.55
2018-06-17T05:41:24.128Z,17.13
2018-06-17T05:43:51.408Z,17.03
2018-06-17T05:46:18.718Z,17.33
2018-06-17T05:48:46.021Z,19.33
2018-06-17T05:51:13.787Z,18.00
2018-06-17T05:53:41.050Z,21.93
2018-06-17T05:56:08.335Z,18.48
2018-06-17T05:58:35.638Z,18.60
2018-06-17T06:01:02.927Z,16.93
2018-06-17T06:03:30.254Z,17.73
2018-06-17T06:05:57.586Z,17.33
2018-06-17T06:08:31.074Z,17.40
2018-06-17T06:10:58.517Z,19.83
2018-06-17T06:13:25.782Z,21.20
2018-06-17T06:15:53.075Z,16.90
2018-06-17T06:18:20.407Z,17.80
2018-06-17T06:20:48.348Z,17.60
2018-06-17T06:23:15.682Z,16.60
2018-06-17T06:25:42.962Z,17.10
2018-06-17T06:28:10.317Z,16.93
2018-06-17T06:30:37.630Z,16.47
2018-06-17T06:33:05.050Z,17.20
2018-06-17T06:35:32.430Z,18.70
2018-06-17T06:38:01.190Z,16.70
2018-06-17T06:40:28.547Z,15.30
2018-06-17T06:42:56.008Z,17.90
2018-06-17T06:45:23.396Z,19.03
2018-06-17T06:47:50.761Z,16.60
2018-06-17T06:50:18.135Z,19.00
2018-06-17T06:52:45.534Z,17.23
2018-06-17T06:55:12.917Z,16.87
2018-06-17T06:57:40.295Z,16.37
2018-06-17T07:00:08.026Z,15.67
2018-06-17T07:02:41.092Z,15.43
2018-06-17T07:05:14.056Z,17.60
2018-06-17T07:07:47.198Z,17.30
2018-06-17T07:10:20.197Z,17.40
2018-06-17T07:12:47.568Z,16.60
2018-06-17T07:15:14.962Z,16.13
2018-06-17T07:17:47.939Z,16.30
2018-06-17T07:20:15.356Z,17.77
2018-06-17T07:22:42.709Z,17.50
2018-06-17T07:25:13.351Z,17.80
2018-06-17T07:28:47.285Z,15.70
2018-06-17T07:31:14.638Z,16.30
2018-06-17T07:33:41.958Z,19.60
2018-06-17T07:36:09.297Z,17.10
2018-06-17T07:38:36.638Z,16.17
2018-06-17T07:41:03.942Z,16.87
2018-06-17T07:43:31.272Z,15.40
2018-06-17T07:45:58.609Z,17.10
2018-06-17T07:48:31.651Z,16.70
2018-06-17T07:51:04.741Z,16.50
2018-06-17T07:53:32.079Z,17.53
2018-06-17T07:55:59.485Z,17.60
2018-06-17T07:58:26.851Z,15.77
2018-06-17T08:00:54.186Z,18.00
2018-06-17T08:03:21.534Z,17.63
2018-06-17T08:05:48.878Z,18.40
2018-06-17T08:08:16.314Z,16.40
2018-06-17T08:10:43.663Z,19.03
2018-06-17T08:13:11.018Z,18.03
2018-06-17T08:15:38.376Z,18.00
2018-06-17T08:18:05.760Z,15.70
2018-06-17T08:20:33.982Z,17.20
2018-06-17T08:23:01.328Z,16.87
2018-06-17T08:25:28.661Z,18.43
2018-06-17T08:27:55.994Z,17.80
2018-06-17T08:30:23.420Z,19.10
2018-06-17T08:32:50.750Z,20.10
2018-06-17T08:35:18.088Z,19.10
2018-06-17T08:37:45.421Z,19.37
2018-06-17T08:40:12.786Z,19.90
2018-06-17T08:42:40.125Z,19.37
2018-06-17T08:45:07.540Z,19.27
2018-06-17T08:47:34.899Z,17.87
2018-06-17T08:50:02.250Z,17.93
2018-06-17T08:52:30.068Z,17.60
2018-06-17T08:54:57.621Z,20.07
2018-06-17T08:57:25.027Z,16.50
2018-06-17T08:59:53.003Z,17.40
2018-06-17T09:02:20.416Z,20.83
2018-06-17T09:04:47.844Z,16.37
2018-06-17T09:07:15.262Z,18.07
2018-06-17T09:09:42.715Z,18.93
2018-06-17T09:12:10.054Z,18.47
2018-06-17T09:14:37.473Z,17.37
2018-06-17T09:17:04.859Z,17.73
2018-06-17T09:19:32.221Z,17.13
2018-06-17T09:21:59.718Z,18.77
2018-06-17T09:24:27.109Z,18.93
2018-06-17T09:26:54.522Z,17.40
2018-06-17T09:29:21.937Z,17.50
2018-06-17T09:31:49.358Z,20.00
2018-06-17T09:34:16.796Z,17.60
2018-06-17T09:36:44.214Z,18.80
2018-06-17T09:39:11.575Z,18.03
2018-06-17T09:41:39.054Z,17.93
2018-06-17T09:44:06.458Z,18.27
2018-06-17T09:46:33.813Z,16.67
2018-06-17T09:49:01.150Z,17.20
2018-06-17T09:51:28.553Z,17.00
2018-06-17T09:53:55.943Z,17.20
2018-06-17T09:56:23.320Z,18.00
2018-06-17T09:58:50.841Z,18.97
2018-06-17T10:01:18.519Z,18.37
2018-06-17T10:03:50.936Z,18.10
2018-06-17T10:06:19.010Z,18.37
2018-06-17T10:08:47.069Z,18.00
2018-06-17T10:11:19.744Z,18.90
2018-06-17T10:13:47.288Z,16.50
2018-06-17T10:16:15.950Z,16.63
2018-06-17T10:18:43.805Z,18.43
2018-06-17T10:21:11.427Z,16.10
2018-06-17T10:23:38.864Z,17.70
2018-06-17T10:26:06.839Z,16.67
2018-06-17T10:28:35.019Z,18.37
2018-06-17T10:31:08.479Z,18.43
2018-06-17T10:33:36.814Z,16.33
2018-06-17T10:36:09.107Z,15.70
2018-06-17T10:38:38.177Z,16.87
2018-06-17T10:41:11.417Z,15.63
2018-06-17T10:43:39.839Z,17.67
2018-06-17T10:46:07.402Z,17.40
2018-06-17T10:48:35.863Z,18.40
2018-06-17T10:51:04.031Z,18.23
2018-06-17T10:53:35.713Z,16.57
2018-06-17T10:56:05.388Z,18.67
2018-06-17T10:58:33.837Z,16.17
2018-06-17T11:01:03.561Z,19.13
2018-06-17T11:03:35.722Z,16.70
2018-06-17T11:06:04.165Z,17.87
2018-06-17T11:08:31.879Z,16.97
2018-06-17T11:10:59.332Z,17.20
2018-06-17T11:13:28.182Z,16.80
2018-06-17T11:15:55.788Z,16.87
2018-06-17T11:18:32.234Z,18.40
2018-06-17T11:21:00.686Z,19.60
2018-06-17T11:23:29.309Z,16.53
2018-06-17T11:25:57.201Z,16.63
2018-06-17T11:28:25.673Z,20.47
2018-06-17T11:30:54.118Z,18.73
2018-06-17T11:46:31.431Z,17.50
2018-06-17T11:49:02.909Z,18.43
2018-06-17T11:51:30.773Z,17.77
2018-06-17T11:53:58.225Z,19.40
2018-06-17T11:56:26.305Z,16.77
2018-06-17T11:58:54.356Z,16.90
2018-06-17T12:01:21.866Z,19.90
2018-06-17T12:03:50.298Z,19.30
2018-06-17T12:06:18.558Z,19.10
2018-06-17T12:08:46.077Z,20.00
2018-06-17T12:11:15.929Z,17.20
2018-06-17T12:13:44.012Z,18.90
2018-06-17T12:16:12.295Z,20.27
2018-06-17T12:18:39.996Z,17.50
2018-06-17T12:21:07.752Z,17.37
2018-06-17T12:23:35.604Z,21.33
2018-06-17T12:26:03.027Z,18.83
2018-06-17T12:28:31.130Z,19.67
2018-06-17T12:30:59.327Z,19.00
2018-06-17T12:33:27.883Z,17.57
2018-06-17T12:35:55.585Z,18.67
2018-06-17T12:38:23.068Z,18.20
2018-06-17T12:40:50.562Z,17.50
2018-06-17T12:43:18.258Z,19.53
2018-06-17T12:45:52.711Z,17.77
2018-06-17T12:48:21.578Z,18.90
2018-06-17T12:50:50.137Z,18.87
2018-06-17T12:53:17.763Z,17.90
2018-06-17T12:55:48.772Z,18.40
2018-06-17T12:58:16.693Z,18.60
2018-06-17T13:00:44.720Z,18.10
2018-06-17T13:03:13.413Z,17.80
2018-06-17T13:05:42.603Z,18.73
2018-06-17T13:08:10.256Z,17.40
2018-06-17T13:10:38.239Z,18.80
2018-06-17T13:13:06.467Z,20.90
2018-06-17T13:15:33.925Z,19.50
2018-06-17T13:18:01.274Z,18.90
2018-06-17T13:20:28.699Z,18.67
2018-06-17T13:22:56.067Z,19.10
2018-06-17T13:25:23.440Z,18.93
2018-06-17T13:27:50.793Z,20.57
2018-06-17T13:30:18.200Z,18.63
2018-06-17T13:32:46.073Z,20.40
2018-06-17T13:35:13.494Z,18.73
2018-06-17T13:37:40.825Z,18.43
2018-06-17T13:40:08.235Z,19.83
2018-06-17T13:42:35.618Z,21.30
2018-06-17T13:45:02.995Z,17.97
2018-06-17T13:47:30.457Z,17.87
2018-06-17T13:49:57.958Z,17.77
2018-06-17T13:52:25.401Z,20.00
2018-06-17T13:54:52.805Z,16.90
2018-06-17T13:57:20.785Z,18.90
2018-06-17T13:59:48.204Z,20.20
2018-06-17T14:02:15.622Z,20.17
2018-06-17T14:04:43.046Z,19.23
2018-06-17T14:07:10.415Z,18.60
2018-06-17T14:09:37.854Z,18.73
2018-06-17T14:12:05.230Z,18.83
2018-06-17T14:14:32.587Z,19.20
2018-06-17T14:16:59.948Z,18.90
2018-06-17T14:19:27.363Z,17.70
2018-06-17T14:21:54.715Z,17.30
2018-06-17T14:24:21.995Z,18.83
2018-06-17T14:26:49.407Z,18.30
2018-06-17T14:29:16.744Z,18.97
2018-06-17T14:31:44.090Z,18.90
2018-06-17T14:34:11.390Z,18.33
2018-06-17T14:36:38.896Z,18.20
2018-06-17T14:39:07.442Z,18.87
2018-06-17T14:41:34.861Z,18.77
2018-06-17T14:44:07.559Z,17.93
2018-06-17T14:46:40.325Z,17.80
2018-06-17T14:49:13.140Z,20.73
2018-06-17T14:51:45.765Z,18.70
2018-06-17T14:54:13.123Z,19.27
2018-06-17T14:56:40.465Z,18.13
2018-06-17T14:59:07.869Z,19.43
2018-06-17T15:01:35.211Z,19.37
2018-06-17T15:04:02.527Z,19.10
2018-06-17T15:06:29.879Z,17.53
2018-06-17T15:08:57.265Z,19.73
2018-06-17T15:11:24.639Z,18.60
2018-06-17T15:13:51.989Z,20.33
2018-06-17T15:16:19.368Z,18.40
2018-06-17T15:18:46.723Z,20.27
2018-06-17T15:21:14.102Z,18.60
2018-06-17T15:23:41.411Z,18.53
2018-06-17T15:26:08.788Z,17.47
2018-06-17T15:28:36.150Z,18.87
2018-06-17T15:31:08.858Z,18.40
2018-06-17T15:33:41.660Z,16.93
2018-06-17T15:36:14.342Z,19.77
2018-06-17T15:38:46.989Z,17.93
2018-06-17T15:41:19.837Z,17.73
2018-06-17T15:43:47.169Z,17.73
2018-06-17T15:46:14.568Z,19.20
2018-06-17T15:48:42.002Z,18.07
2018-06-17T15:51:09.495Z,18.33
2018-06-17T15:53:36.919Z,18.70
2018-06-17T15:56:04.399Z,18.90
2018-06-17T15:58:31.755Z,18.23
2018-06-17T16:00:59.208Z,23.07
2018-06-17T16:03:26.604Z,17.83
2018-06-17T16:05:53.955Z,18.90
2018-06-17T16:08:21.342Z,19.20
2018-06-17T16:10:48.724Z,20.00
2018-06-17T16:13:21.454Z,21.93
2018-06-17T16:15:54.117Z,18.40
2018-06-17T16:18:26.854Z,19.13
2018-06-17T16:20:59.113Z,19.50
2018-06-17T16:23:26.463Z,15.90
2018-06-17T16:25:53.868Z,20.90
2018-06-17T16:28:21.265Z,18.87
2018-06-17T16:30:48.603Z,19.73
2018-06-17T16:33:16.660Z,17.37
2018-06-17T16:35:44.122Z,18.87
2018-06-17T16:38:11.510Z,17.77
2018-06-17T16:40:38.901Z,19.73
2018-06-17T16:43:06.211Z,18.00
2018-06-17T16:45:33.561Z,17.10
2018-06-17T16:48:00.964Z,17.83
2018-06-17T16:50:28.301Z,18.80
2018-06-17T16:53:00.897Z,20.03
2018-06-17T16:56:31.991Z,18.80
2018-06-17T16:59:04.813Z,17.47
2018-06-17T17:01:32.172Z,20.07
2018-06-17T17:03:59.573Z,18.90
2018-06-17T17:06:26.899Z,18.50
2018-06-17T17:08:54.292Z,19.60
2018-06-17T17:11:21.628Z,18.90
2018-06-17T17:13:49.003Z,19.30
2018-06-17T17:16:16.399Z,26.07
2018-06-17T17:18:43.859Z,20.27
2018-06-17T17:21:11.523Z,20.83
2018-06-17T17:23:38.856Z,20.83
2018-06-17T17:26:06.252Z,21.90
2018-06-17T17:28:33.599Z,21.73
2018-06-17T17:31:01.048Z,25.60
2018-06-17T17:33:33.710Z,23.30
2018-06-17T17:36:06.442Z,22.70
2018-06-17T17:38:39.203Z,22.17
2018-06-17T17:41:06.582Z,25.63
2018-06-17T17:43:33.905Z,22.33
2018-06-17T17:46:06.589Z,21.10
2018-06-17T17:48:33.930Z,20.77
2018-06-17T17:51:02.068Z,21.40
2018-06-17T17:53:29.670Z,24.03
2018-06-17T17:55:57.082Z,21.80
2018-06-17T17:58:24.557Z,20.27
2018-06-17T18:00:51.925Z,23.63
2018-06-17T18:03:19.464Z,20.93
2018-06-17T18:05:46.836Z,23.23
2018-06-17T18:08:14.289Z,23.93
2018-06-17T18:10:41.686Z,22.23
2018-06-17T18:13:09.169Z,19.50
2018-06-17T18:15:36.668Z,20.40
2018-06-17T18:18:04.029Z,19.20
2018-06-17T18:20:31.489Z,19.17
2018-06-17T18:22:58.910Z,17.77
2018-06-17T18:25:31.993Z,19.17
2018-06-17T18:28:04.953Z,19.37
2018-06-17T18:30:37.709Z,19.37
2018-06-17T18:33:10.595Z,20.20
2018-06-17T18:35:43.285Z,21.97
2018-06-17T18:38:10.812Z,18.10
2018-06-17T18:40:38.358Z,20.48
2018-06-17T18:43:05.899Z,18.40
2018-06-17T18:45:33.315Z,18.77
2018-06-17T18:48:00.775Z,19.37
2018-06-17T18:50:28.189Z,17.90
2018-06-17T18:52:55.627Z,19.25
2018-06-17T18:55:23.161Z,18.67
2018-06-17T18:57:50.617Z,19.07
2018-06-17T19:00:22.433Z,19.60
2018-06-17T19:02:49.903Z,23.62
2018-06-17T19:05:17.324Z,19.33
2018-06-17T19:07:44.775Z,18.53
2018-06-17T19:10:17.512Z,18.20
2018-06-17T19:12:50.536Z,16.17
2018-06-17T19:15:23.388Z,19.73
2018-06-17T19:18:10.562Z,17.12
2018-06-17T19:20:38.582Z,19.25
2018-06-17T19:23:06.395Z,17.20
2018-06-17T19:25:33.850Z,18.47
2018-06-17T19:28:01.224Z,16.80
2018-06-17T19:30:28.653Z,17.45
2018-06-17T19:32:56.119Z,17.30
2018-06-17T19:35:23.924Z,22.65
2018-06-17T19:37:53.062Z,19.45
2018-06-17T19:40:20.500Z,18.42
2018-06-17T19:42:47.968Z,18.87
2018-06-17T19:45:15.566Z,18.45
2018-06-17T19:47:43.136Z,19.70
2018-06-17T19:50:16.196Z,18.90
2018-06-17T19:52:50.354Z,20.00
2018-06-17T19:55:23.084Z,18.40
2018-06-17T19:57:56.409Z,22.45
2018-06-17T20:00:34.706Z,17.50
2018-06-17T20:03:06.490Z,18.65
2018-06-17T20:05:34.232Z,17.80
2018-06-17T20:08:02.378Z,19.62
2018-06-17T20:10:29.865Z,18.20
2018-06-17T20:12:57.502Z,18.77
2018-06-17T20:15:25.379Z,19.25
2018-06-17T20:17:52.829Z,22.85
2018-06-17T20:20:20.765Z,18.60
2018-06-17T20:22:48.773Z,21.50
2018-06-17T20:25:16.209Z,18.07
2018-06-17T20:27:43.644Z,18.67
2018-06-17T20:30:11.106Z,18.62
2018-06-17T20:32:44.355Z,18.70
2018-06-17T20:35:17.659Z,21.07
2018-06-17T20:37:50.564Z,20.35
2018-06-17T20:40:23.407Z,19.42
2018-06-17T20:42:56.130Z,18.92
2018-06-17T20:45:23.583Z,18.85
2018-06-17T20:47:51.161Z,22.80
2018-06-17T20:50:22.344Z,19.30
2018-06-17T20:52:49.711Z,19.25
2018-06-17T20:55:17.088Z,24.20
2018-06-17T20:57:44.473Z,20.82
2018-06-17T21:00:12.179Z,21.73
2018-06-17T21:02:39.728Z,20.48
2018-06-17T21:05:07.452Z,21.25
2018-06-17T21:07:34.834Z,20.65
2018-06-17T21:10:02.235Z,21.70
2018-06-17T21:12:29.638Z,21.00
2018-06-17T21:14:57.020Z,23.35
2018-06-17T21:17:24.422Z,20.00
2018-06-17T21:19:57.317Z,21.40
2018-06-17T21:22:30.011Z,23.77
2018-06-17T21:25:02.749Z,21.33
2018-06-17T21:27:35.487Z,23.52
2018-06-17T21:30:02.941Z,20.62
2018-06-17T21:32:31.117Z,20.50
2018-06-17T21:34:58.462Z,20.88
2018-06-17T21:37:25.873Z,20.95
2018-06-17T21:39:53.231Z,23.47
2018-06-17T21:42:20.603Z,22.60
2018-06-17T21:44:47.891Z,21.68
2018-06-17T21:47:15.259Z,22.37
2018-06-17T21:49:42.599Z,24.05
2018-06-17T21:52:09.956Z,21.93
2018-06-17T21:54:37.266Z,20.12
2018-06-17T21:57:04.855Z,23.42
2018-06-17T21:59:32.251Z,21.07
2018-06-17T22:01:59.684Z,20.65
2018-06-17T22:04:32.411Z,21.15
2018-06-17T22:06:59.883Z,21.10
2018-06-17T22:09:32.708Z,23.42
2018-06-17T22:12:05.363Z,23.92
2018-06-17T22:14:38.012Z,23.38
2018-06-17T22:17:10.778Z,23.05
2018-06-17T22:19:38.111Z,20.50
2018-06-17T22:22:05.436Z,21.42
2018-06-17T22:24:32.797Z,24.43
2018-06-17T22:27:00.204Z,23.92
2018-06-17T22:29:27.595Z,21.50
2018-06-17T22:31:54.945Z,22.40
2018-06-17T22:34:22.326Z,22.82
2018-06-17T22:36:49.878Z,24.37
2018-06-17T22:39:17.210Z,21.30
2018-06-17T22:41:44.535Z,22.85
2018-06-17T22:44:11.858Z,21.10
2018-06-17T22:46:39.183Z,20.72
2018-06-17T22:49:06.520Z,25.70
2018-06-17T22:51:33.871Z,22.98
2018-06-17T22:54:06.836Z,23.05
2018-06-17T22:56:39.713Z,21.42
2018-06-17T23:00:12.936Z,23.57
2018-06-17T23:02:45.733Z,23.05
2018-06-17T23:05:18.614Z,18.95
2018-06-17T23:07:51.307Z,19.02
2018-06-17T23:10:18.658Z,19.82
2018-06-17T23:12:45.950Z,20.27
2018-06-17T23:15:13.362Z,19.82
2018-06-17T23:17:40.669Z,22.52
2018-06-17T23:20:08.005Z,24.70
2018-06-17T23:22:35.345Z,20.02
2018-06-17T23:25:02.688Z,20.35
2018-06-17T23:27:30.024Z,23.20
2018-06-17T23:29:57.341Z,21.25
2018-06-17T23:32:24.705Z,19.23
2018-06-17T23:34:52.018Z,17.73
2018-06-17T23:37:19.438Z,20.85
2018-06-17T23:39:46.738Z,20.23
2018-06-17T23:42:14.032Z,21.35
2018-06-17T23:44:41.313Z,18.27
2018-06-17T23:47:13.892Z,20.45
2018-06-17T23:49:46.606Z,19.85
2018-06-17T23:52:19.263Z,21.57
2018-06-17T23:54:52.015Z,18.67
2018-06-17T23:57:19.305Z,19.45
2018-06-17T23:59:46.612Z,19.92
